Richmond North's Hourly Summary for Wednesday, May 9, 2018
Hour Temp
(f)
RH
(%)
Solar Rad.
(MJ/m2)
Rainfall
(in)
Wind
(mph)
5/9/2018 12:00 AM 62 93 0 0 0
5/9/2018 1:00 AM 60 96 0 0 0
5/9/2018 2:00 AM 58 97 0 0 0
5/9/2018 3:00 AM 58 98 0 0 0
5/9/2018 4:00 AM 58 99 0 0 0
5/9/2018 5:00 AM 57 99 0 0 0
5/9/2018 6:00 AM 57 99 0.04 0 0
5/9/2018 7:00 AM 62 96 0.52 0 0
5/9/2018 8:00 AM 71 79 0.51 0 1.46
5/9/2018 9:00 AM 76 66 1.71 0 3.28
5/9/2018 10:00 AM 79 51 2.7 0 4.34
5/9/2018 11:00 AM 82 43 3.17 0 3.62
5/9/2018 12:00 PM 84 39 3.39 0 4.34
5/9/2018 1:00 PM 85 33 3.15 0 4.28
5/9/2018 2:00 PM 87 30 3.31 0 4.5
5/9/2018 3:00 PM 87 29 2.69 0 4.39
5/9/2018 4:00 PM 86 28 2.27 0 4.01
5/9/2018 5:00 PM 85 28 1.72 0 4.49
5/9/2018 6:00 PM 83 30 0.94 0 4.82
5/9/2018 7:00 PM 79 37 0.19 0 4.22
5/9/2018 8:00 PM 74 45 0 0 1.33
5/9/2018 9:00 PM 71 60 0 0 0.85
5/9/2018 10:00 PM 67 74 0 0 0.07
5/9/2018 11:00 PM 62 90 0 0 0
Data Summary 72 64 26.31 0.00 2.08